Time;durP1;ratioP1;P1;durP2;ratioP2;P2;SDS_P1;SDS_P2;PMS_P1;PMS_P2;Temp;Humidity;BMP_temperature;BMP_pressure;BME280_temperature;BME280_humidity;BME280_pressure;Samples;Min_cycle;Max_cycle;Signal;HPM_P1;HPM_P2
2024/02/07 00:05:00;;;;;;;;;;;;;;;4.49;100.00;95460.59;10464174;28;2068;-63
2024/02/07 00:10:06;;;;;;;;;;;;;;;4.48;100.00;95456.31;10464953;28;2119;-63
2024/02/07 00:15:12;;;;;;;;;;;;;;;4.46;100.00;95445.13;10469685;28;1998;-61
2024/02/07 00:20:18;;;;;;;;;;;;;;;4.43;100.00;95451.72;10459464;28;2260;-64
2024/02/07 00:25:20;;;;;;;;;;;;;;;4.42;100.00;95444.00;10472620;28;2187;-66
2024/02/07 00:30:26;;;;;;;;;;;;;;;4.38;100.00;95432.22;10460199;28;2096;-66
2024/02/07 00:35:42;;;;;;;;;;;;;;;4.30;100.00;95426.25;10472547;28;2115;-63
2024/02/07 00:40:46;;;;;;;;;;;;;;;4.30;100.00;95420.91;10474271;28;2110;-65
2024/02/07 00:45:49;;;;;;;;;;;;;;;4.32;100.00;95413.50;10473409;28;2244;-64
2024/02/07 00:50:56;;;;;;;;;;;;;;;4.25;100.00;95402.22;10475863;28;2540;-64
2024/02/07 00:56:03;;;;;;;;;;;;;;;4.30;100.00;95402.31;10474603;28;2059;-63
2024/02/07 01:01:12;;;;;;;;;;;;;;;4.36;100.00;95403.19;10476645;28;2129;-63
2024/02/07 01:06:22;;;;;;;;;;;;;;;4.33;100.00;95409.81;10472876;28;2174;-63
2024/02/07 01:11:27;;;;;;;;;;;;;;;4.40;100.00;95406.19;10473556;28;2192;-63
2024/02/07 01:16:32;;;;;;;;;;;;;;;4.38;100.00;95401.06;10474286;28;1981;-64
2024/02/07 01:21:36;;;;;;;;;;;;;;;4.37;100.00;95388.81;10478407;28;2098;-65
2024/02/07 01:26:40;;;;;;;;;;;;;;;4.34;100.00;95389.31;10469329;28;2123;-64
2024/02/07 01:31:46;;;;;;;;;;;;;;;4.33;100.00;95385.06;10473347;28;2552;-64
2024/02/07 01:36:51;;;;;;;;;;;;;;;4.37;100.00;95370.19;10474051;28;2055;-63
2024/02/07 01:42:01;;;;;;;;;;;;;;;4.42;100.00;95370.28;10470948;28;2179;-63
2024/02/07 01:47:19;;;;;;;;;;;;;;;4.44;100.00;95354.06;10472627;28;2153;-63
2024/02/07 01:52:22;;;;;;;;;;;;;;;4.43;100.00;95361.25;10470414;28;2017;-63
2024/02/07 01:57:26;;;;;;;;;;;;;;;4.43;100.00;95345.28;10471929;28;2270;-65
2024/02/07 02:02:29;;;;;;;;;;;;;;;4.45;100.00;95350.34;10471216;28;2103;-67
2024/02/07 02:07:35;;;;;;;;;;;;;;;4.45;100.00;95335.19;10474305;28;2014;-68
2024/02/07 02:12:37;;;;;;;;;;;;;;;4.45;100.00;95343.16;10473156;28;2783;-70
2024/02/07 02:17:41;;;;;;;;;;;;;;;4.51;100.00;95325.41;10458148;28;2299;-63
2024/02/07 02:22:46;;;;;;;;;;;;;;;4.50;100.00;95310.50;10469020;28;2143;-71
2024/02/07 02:27:51;;;;;;;;;;;;;;;4.54;100.00;95300.97;10468755;28;2091;-63
2024/02/07 02:32:54;;;;;;;;;;;;;;;4.50;100.00;95302.50;10470677;28;2115;-64
2024/02/07 02:37:58;;;;;;;;;;;;;;;4.49;100.00;95304.38;10470406;28;2107;-62
2024/02/07 02:43:05;;;;;;;;;;;;;;;4.52;100.00;95298.56;10468892;28;2092;-62
2024/02/07 02:48:14;;;;;;;;;;;;;;;4.61;100.00;95298.94;10473929;28;2129;-63
2024/02/07 02:53:18;;;;;;;;;;;;;;;4.62;100.00;95308.53;10475869;28;2575;-63
2024/02/07 02:58:21;;;;;;;;;;;;;;;4.56;100.00;95286.34;10455826;28;2157;-64
2024/02/07 03:03:53;;;;;;;;;;;;;;;4.56;100.00;95304.19;10473467;28;2217;-64
2024/02/07 03:09:07;;;;;;;;;;;;;;;4.56;100.00;95290.88;10457959;28;2174;-63
2024/02/07 03:14:11;;;;;;;;;;;;;;;4.59;100.00;95279.75;10474290;28;2168;-63
2024/02/07 03:19:16;;;;;;;;;;;;;;;4.64;100.00;95271.00;10449993;28;2091;-63
2024/02/07 03:24:22;;;;;;;;;;;;;;;4.63;100.00;95270.19;10473932;28;2163;-63
2024/02/07 03:29:27;;;;;;;;;;;;;;;4.57;100.00;95261.34;10466669;28;2231;-63
2024/02/07 03:34:32;;;;;;;;;;;;;;;4.62;100.00;95263.25;10471101;28;2067;-65
2024/02/07 03:39:37;;;;;;;;;;;;;;;4.67;100.00;95244.69;10469702;28;2480;-63
2024/02/07 03:44:49;;;;;;;;;;;;;;;4.68;100.00;95237.50;10471120;28;2187;-64
2024/02/07 03:49:52;;;;;;;;;;;;;;;4.68;100.00;95230.31;10474037;28;2236;-63
2024/02/07 03:55:00;;;;;;;;;;;;;;;4.69;100.00;95215.16;10473009;28;2107;-61
2024/02/07 04:00:07;;;;;;;;;;;;;;;4.72;100.00;95210.16;10475636;28;2260;-63
2024/02/07 04:05:12;;;;;;;;;;;;;;;4.74;100.00;95213.34;10476334;28;2017;-62
2024/02/07 04:10:18;;;;;;;;;;;;;;;4.81;100.00;95211.28;10479160;28;2003;-67
2024/02/07 05:19:52;;;;;;;;;;;;;;;5.08;100.00;95149.22;10481111;28;2259;-63
2024/02/07 05:24:57;;;;;;;;;;;;;;;5.17;100.00;95147.69;10469634;28;2236;-64
2024/02/07 05:30:03;;;;;;;;;;;;;;;5.22;100.00;95145.09;10473329;28;2119;-62
2024/02/07 05:35:07;;;;;;;;;;;;;;;5.35;100.00;95141.97;10472629;28;2260;-62
2024/02/07 05:40:14;;;;;;;;;;;;;;;5.45;100.00;95140.44;10474000;28;2114;-63
2024/02/07 05:45:20;;;;;;;;;;;;;;;5.59;100.00;95149.56;10472404;28;2100;-62
2024/02/07 05:50:24;;;;;;;;;;;;;;;5.63;100.00;95148.00;10456761;28;2012;-63
2024/02/07 05:55:28;;;;;;;;;;;;;;;5.79;100.00;95141.72;10472294;28;2063;-63
2024/02/07 06:00:33;;;;;;;;;;;;;;;5.82;100.00;95138.53;10471161;28;2070;-62
2024/02/07 06:05:41;;;;;;;;;;;;;;;5.91;100.00;95139.66;10474919;28;2134;-63
2024/02/07 06:10:46;;;;;;;;;;;;;;;5.88;100.00;95121.47;10473272;28;2185;-63
2024/02/07 06:15:51;;;;;;;;;;;;;;;5.82;100.00;95125.19;10470678;28;2245;-63
2024/02/07 06:20:54;;;;;;;;;;;;;;;5.83;100.00;95123.31;10479695;28;2052;-63
2024/02/07 06:26:00;;;;;;;;;;;;;;;5.83;100.00;95112.66;10481909;28;2056;-64
2024/02/07 06:31:03;;;;;;;;;;;;;;;5.79;100.00;95122.22;10463043;28;2132;-63
2024/02/07 06:36:08;;;;;;;;;;;;;;;5.80;100.00;95135.31;10479292;28;2367;-67
2024/02/07 06:41:11;;;;;;;;;;;;;;;5.82;100.00;95111.84;10470418;28;2048;-64
2024/02/07 06:46:17;;;;;;;;;;;;;;;5.85;100.00;95129.19;10459559;28;2126;-63
2024/02/07 06:51:29;;;;;;;;;;;;;;;5.92;100.00;95122.59;10460124;28;2068;-63
2024/02/07 06:56:36;;;;;;;;;;;;;;;5.90;100.00;95126.56;10476634;28;2026;-64
2024/02/07 07:01:41;;;;;;;;;;;;;;;5.95;100.00;95127.41;10474449;28;2103;-65
2024/02/07 07:06:45;;;;;;;;;;;;;;;5.99;100.00;95118.91;10468547;28;2091;-68
2024/02/07 07:11:50;;;;;;;;;;;;;;;6.10;100.00;95123.19;10468703;28;2259;-63
2024/02/07 07:16:53;;;;;;;;;;;;;;;6.12;100.00;95132.56;10466276;28;2048;-66
2024/02/07 07:22:11;;;;;;;;;;;;;;;6.21;100.00;95124.84;10475336;28;2081;-65
2024/02/07 07:27:17;;;;;;;;;;;;;;;6.43;100.00;95111.31;10445251;28;2331;-66
2024/02/07 07:32:23;;;;;;;;;;;;;;;6.58;100.00;95114.00;10463836;28;2071;-69
2024/02/07 07:37:28;;;;;;;;;;;;;;;6.67;100.00;95116.94;10468535;28;2103;-69
2024/02/07 07:42:34;;;;;;;;;;;;;;;6.72;100.00;95108.94;10466346;28;2372;-70
2024/02/07 07:47:38;;;;;;;;;;;;;;;6.78;100.00;95115.91;10464679;28;2130;-63
2024/02/07 07:52:44;;;;;;;;;;;;;;;6.89;100.00;95108.72;10465769;28;2272;-64
2024/02/07 07:57:48;;;;;;;;;;;;;;;6.97;100.00;95103.63;10465386;28;1985;-65
2024/02/07 08:02:52;;;;;;;;;;;;;;;7.09;100.00;95098.03;10466519;28;2205;-67
2024/02/07 08:07:56;;;;;;;;;;;;;;;7.25;100.00;95106.81;10464996;28;2353;-63
2024/02/07 08:13:01;;;;;;;;;;;;;;;7.30;100.00;95104.16;10461592;28;2044;-63
2024/02/07 08:18:12;;;;;;;;;;;;;;;7.42;100.00;95091.31;10466618;28;2007;-63
2024/02/07 08:23:16;;;;;;;;;;;;;;;7.61;100.00;95112.94;10463295;28;2458;-62
2024/02/07 08:28:21;;;;;;;;;;;;;;;7.80;100.00;95105.13;10445114;28;2388;-62
2024/02/07 08:33:24;;;;;;;;;;;;;;;7.95;100.00;95097.06;10462833;28;2090;-63
2024/02/07 08:38:28;;;;;;;;;;;;;;;8.01;100.00;95087.91;10463380;28;2262;-63
2024/02/07 08:43:34;;;;;;;;;;;;;;;8.39;100.00;95093.66;10453572;28;2143;-70
2024/02/07 08:48:47;;;;;;;;;;;;;;;8.89;100.00;95095.25;10485014;28;2358;-72
2024/02/07 08:53:51;;;;;;;;;;;;;;;8.84;100.00;95083.75;10481895;28;2173;-64
2024/02/07 08:58:58;;;;;;;;;;;;;;;8.66;100.00;95082.56;10465245;28;2104;-64
2024/02/07 09:04:03;;;;;;;;;;;;;;;8.75;100.00;95096.94;10453042;28;2121;-63
2024/02/07 09:09:10;;;;;;;;;;;;;;;9.09;100.00;95091.59;10467421;28;2615;-63
2024/02/07 09:14:16;;;;;;;;;;;;;;;9.18;100.00;95084.56;10453221;28;2354;-64
2024/02/07 09:19:19;;;;;;;;;;;;;;;9.22;100.00;95071.38;10471300;28;2118;-63
2024/02/07 09:24:22;;;;;;;;;;;;;;;9.49;100.00;95065.53;10473205;28;2166;-64
2024/02/07 09:29:27;;;;;;;;;;;;;;;9.43;100.00;95050.56;10473029;28;2129;-66
2024/02/07 09:34:35;;;;;;;;;;;;;;;9.60;100.00;95047.41;10471180;28;2070;-67
2024/02/07 09:39:38;;;;;;;;;;;;;;;9.60;100.00;95036.69;10469567;28;2262;-66
2024/02/07 09:44:45;;;;;;;;;;;;;;;9.77;100.00;95034.34;10473040;28;2106;-69
2024/02/07 09:49:48;;;;;;;;;;;;;;;9.91;100.00;95037.94;10474639;28;2024;-63
2024/02/07 09:54:55;;;;;;;;;;;;;;;9.95;100.00;95030.91;10458138;28;2052;-63
2024/02/07 09:59:58;;;;;;;;;;;;;;;10.34;100.00;95013.00;10452265;28;2015;-65
2024/02/07 10:05:02;;;;;;;;;;;;;;;10.54;100.00;95001.94;10469784;28;2322;-64
2024/02/07 10:10:10;;;;;;;;;;;;;;;10.82;100.00;94992.91;10453214;28;2066;-63
2024/02/07 10:15:17;;;;;;;;;;;;;;;10.69;100.00;94982.91;10469596;28;2731;-65
2024/02/07 10:20:23;;;;;;;;;;;;;;;10.50;100.00;95003.63;10472137;28;2047;-65
2024/02/07 10:25:36;;;;;;;;;;;;;;;10.24;100.00;94977.13;10451065;28;2229;-63
2024/02/07 10:30:39;;;;;;;;;;;;;;;9.99;100.00;94985.50;10448680;28;2162;-65
2024/02/07 10:35:42;;;;;;;;;;;;;;;10.18;100.00;94980.13;10468393;28;2127;-68
2024/02/07 10:40:46;;;;;;;;;;;;;;;10.47;100.00;94980.00;10470200;28;2119;-69
2024/02/07 10:45:55;;;;;;;;;;;;;;;10.55;100.00;94979.34;10471840;28;2306;-71
2024/02/07 10:51:01;;;;;;;;;;;;;;;10.40;100.00;94968.84;10472732;28;2119;-68
2024/02/07 10:56:05;;;;;;;;;;;;;;;10.41;100.00;94970.44;10452897;28;2107;-70
2024/02/07 11:01:07;;;;;;;;;;;;;;;10.24;100.00;94952.97;10471510;28;2636;-65
2024/02/07 11:06:13;;;;;;;;;;;;;;;10.34;100.00;94964.63;10454868;28;2083;-66
2024/02/07 11:11:18;;;;;;;;;;;;;;;10.47;100.00;94928.97;10452304;28;2075;-64
2024/02/07 11:16:21;;;;;;;;;;;;;;;10.28;100.00;94924.41;10464666;28;2222;-64
2024/02/07 11:21:28;;;;;;;;;;;;;;;10.52;100.00;94931.56;10474492;28;2257;-65
2024/02/07 11:26:31;;;;;;;;;;;;;;;10.83;100.00;94921.91;10449263;28;2183;-65
2024/02/07 11:31:36;;;;;;;;;;;;;;;10.57;100.00;94925.31;10465066;28;2103;-65
2024/02/07 11:36:44;;;;;;;;;;;;;;;10.57;100.00;94898.47;10452146;28;2198;-64
2024/02/07 11:41:53;;;;;;;;;;;;;;;10.54;100.00;94919.44;10448000;28;2102;-69
2024/02/07 11:46:57;;;;;;;;;;;;;;;10.74;100.00;94912.13;10468015;28;2232;-64
2024/02/07 11:52:06;;;;;;;;;;;;;;;10.94;100.00;94901.03;10473902;28;2226;-64
2024/02/07 11:57:11;;;;;;;;;;;;;;;11.05;100.00;94905.09;10465270;28;2437;-65
2024/02/07 12:02:25;;;;;;;;;;;;;;;11.11;100.00;94897.75;10462124;28;2007;-64
2024/02/07 12:07:29;;;;;;;;;;;;;;;10.87;100.00;94862.16;10466116;28;2035;-65
2024/02/07 12:12:33;;;;;;;;;;;;;;;10.68;100.00;94868.41;10465312;28;2127;-67
2024/02/07 12:17:38;;;;;;;;;;;;;;;10.52;100.00;94859.81;10469084;28;2035;-65
2024/02/07 12:22:45;;;;;;;;;;;;;;;10.60;100.00;94866.41;10473772;28;2154;-66
2024/02/07 12:27:52;;;;;;;;;;;;;;;10.43;100.00;94852.72;10476563;28;2141;-65
2024/02/07 12:32:58;;;;;;;;;;;;;;;10.46;100.00;94849.47;10471922;28;2123;-64
2024/02/07 12:43:20;;;;;;;;;;;;;;;10.61;100.00;94837.63;10469829;28;2169;-67
2024/02/07 12:48:30;;;;;;;;;;;;;;;10.53;100.00;94841.81;10475210;28;2044;-65
2024/02/07 12:53:33;;;;;;;;;;;;;;;10.57;100.00;94828.59;10480615;28;2395;-66
2024/02/07 12:58:37;;;;;;;;;;;;;;;10.66;100.00;94821.41;10458217;28;2180;-67
2024/02/07 13:03:41;;;;;;;;;;;;;;;10.70;100.00;94828.59;10473560;28;2031;-67
2024/02/07 13:08:44;;;;;;;;;;;;;;;10.67;100.00;94829.19;10471007;28;2107;-65
2024/02/07 13:13:48;;;;;;;;;;;;;;;10.72;100.00;94821.03;10475608;28;2164;-65
2024/02/07 13:18:54;;;;;;;;;;;;;;;10.60;100.00;94807.28;10455836;28;1993;-66
2024/02/07 13:23:59;;;;;;;;;;;;;;;10.69;100.00;94800.13;10476152;28;2051;-66
2024/02/07 13:29:03;;;;;;;;;;;;;;;10.68;100.00;94813.84;10471487;28;2221;-66
2024/02/07 13:34:07;;;;;;;;;;;;;;;10.54;100.00;94793.13;10471123;28;2083;-70
2024/02/07 13:39:12;;;;;;;;;;;;;;;10.52;100.00;94791.84;10473374;28;2556;-69
2024/02/07 13:44:15;;;;;;;;;;;;;;;10.55;100.00;94786.66;10475495;28;2232;-64
2024/02/07 13:49:22;;;;;;;;;;;;;;;10.55;100.00;94778.59;10475513;28;2147;-66
2024/02/07 13:54:26;;;;;;;;;;;;;;;10.54;100.00;94777.00;10472931;28;2083;-68
2024/02/07 13:59:42;;;;;;;;;;;;;;;10.62;100.00;94758.59;10471774;28;2071;-66
2024/02/07 14:04:50;;;;;;;;;;;;;;;10.61;100.00;94762.38;10469360;28;2205;-66
2024/02/07 14:09:55;;;;;;;;;;;;;;;10.57;100.00;94748.75;10452237;28;2065;-66
2024/02/07 14:14:59;;;;;;;;;;;;;;;10.58;100.00;94750.34;10453277;28;2079;-66
2024/02/07 14:20:07;;;;;;;;;;;;;;;10.55;100.00;94745.56;10455812;28;1988;-66
2024/02/07 14:25:16;;;;;;;;;;;;;;;10.63;100.00;94730.66;10463601;28;2228;-66
2024/02/07 14:30:29;;;;;;;;;;;;;;;10.69;100.00;94743.69;10453488;28;2484;-66
2024/02/07 14:35:37;;;;;;;;;;;;;;;10.85;100.00;94754.94;10469188;28;2083;-67
2024/02/07 14:40:42;;;;;;;;;;;;;;;10.64;100.00;94743.78;10469689;28;2282;-66
2024/02/07 14:45:54;;;;;;;;;;;;;;;10.67;100.00;94743.19;10450987;28;2114;-67
2024/02/07 14:51:00;;;;;;;;;;;;;;;10.58;100.00;94749.56;10436948;28;2099;-65
2024/02/07 14:56:08;;;;;;;;;;;;;;;10.54;100.00;94754.72;10467937;28;2165;-66
2024/02/07 15:01:14;;;;;;;;;;;;;;;10.42;100.00;94759.78;10469628;28;2261;-65
2024/02/07 15:06:18;;;;;;;;;;;;;;;10.32;100.00;94763.47;10451809;28;2207;-67
2024/02/07 15:11:22;;;;;;;;;;;;;;;10.27;100.00;94729.44;10463103;28;2118;-67
2024/02/07 15:16:36;;;;;;;;;;;;;;;10.19;100.00;94742.72;10467220;28;2231;-67
2024/02/07 15:21:43;;;;;;;;;;;;;;;10.17;100.00;94726.09;10467152;28;2174;-66
2024/02/07 15:26:50;;;;;;;;;;;;;;;10.26;100.00;94717.09;10467512;28;2062;-66
2024/02/07 15:32:01;;;;;;;;;;;;;;;10.16;100.00;94706.50;10453503;28;2191;-66
2024/02/07 15:37:05;;;;;;;;;;;;;;;10.11;100.00;94730.75;10469453;28;2104;-65
2024/02/07 15:42:09;;;;;;;;;;;;;;;9.96;100.00;94721.09;10435294;28;2261;-67
2024/02/07 15:47:18;;;;;;;;;;;;;;;9.96;100.00;94714.91;10447807;28;2003;-66
2024/02/07 15:52:22;;;;;;;;;;;;;;;9.87;100.00;94709.44;10477640;28;2071;-67
2024/02/07 15:57:30;;;;;;;;;;;;;;;9.82;100.00;94700.69;10459469;28;2173;-67
2024/02/07 16:02:36;;;;;;;;;;;;;;;9.79;100.00;94702.03;10458024;28;2087;-66
2024/02/07 16:07:43;;;;;;;;;;;;;;;9.66;100.00;94692.88;10464536;28;2046;-67
2024/02/07 16:12:47;;;;;;;;;;;;;;;9.65;100.00;94711.94;10476911;28;2424;-69
2024/02/07 16:17:57;;;;;;;;;;;;;;;9.66;100.00;94708.97;10478895;28;2019;-66
2024/02/07 16:23:04;;;;;;;;;;;;;;;9.53;100.00;94701.66;10475814;28;2136;-65
2024/02/07 16:28:13;;;;;;;;;;;;;;;9.52;100.00;94692.03;10473038;28;2172;-73
2024/02/07 16:33:19;;;;;;;;;;;;;;;9.46;100.00;94688.63;10472758;28;2230;-65
2024/02/07 16:38:26;;;;;;;;;;;;;;;9.43;100.00;94689.22;10462439;28;2091;-66
2024/02/07 16:43:31;;;;;;;;;;;;;;;9.37;100.00;94678.88;10471883;28;2371;-67
2024/02/07 16:48:37;;;;;;;;;;;;;;;9.35;100.00;94672.97;10478063;28;2416;-67
2024/02/07 16:53:43;;;;;;;;;;;;;;;9.32;100.00;94679.75;10479543;28;2256;-66
2024/02/07 16:58:50;;;;;;;;;;;;;;;9.29;100.00;94676.84;10480044;28;2064;-64
2024/02/07 17:03:54;;;;;;;;;;;;;;;9.24;100.00;94671.56;10481393;28;2351;-65
2024/02/07 17:09:02;;;;;;;;;;;;;;;9.16;100.00;94671.16;10479878;28;2103;-65
2024/02/07 17:14:11;;;;;;;;;;;;;;;9.20;100.00;94684.75;10475678;28;2237;-66
2024/02/07 17:19:14;;;;;;;;;;;;;;;9.17;100.00;94680.78;10477152;28;2106;-66
2024/02/07 17:24:20;;;;;;;;;;;;;;;9.09;100.00;94684.09;10481507;28;2087;-63
2024/02/07 17:29:24;;;;;;;;;;;;;;;9.03;100.00;94671.84;10474159;28;2156;-69
2024/02/07 17:34:28;;;;;;;;;;;;;;;8.98;100.00;94661.22;10479565;28;2339;-70
2024/02/07 17:39:37;;;;;;;;;;;;;;;8.91;100.00;94671.50;10475999;28;2051;-64
2024/02/07 17:44:43;;;;;;;;;;;;;;;8.83;100.00;94669.47;10461967;28;2189;-65
2024/02/07 17:49:59;;;;;;;;;;;;;;;8.88;100.00;94664.03;10474630;28;2223;-65
2024/02/07 17:55:06;;;;;;;;;;;;;;;8.82;100.00;94662.50;10475109;28;1980;-65
2024/02/07 18:00:11;;;;;;;;;;;;;;;8.83;100.00;94658.75;10472749;28;2414;-66
2024/02/07 18:05:23;;;;;;;;;;;;;;;8.84;100.00;94645.06;10472915;28;1963;-65
2024/02/07 18:10:33;;;;;;;;;;;;;;;8.89;100.00;94636.94;10472631;28;2475;-65
2024/02/07 18:15:39;;;;;;;;;;;;;;;8.89;100.00;94639.63;10473200;28;2087;-65
2024/02/07 18:20:47;;;;;;;;;;;;;;;8.92;100.00;94630.22;10465561;28;2147;-67
2024/02/07 18:25:53;;;;;;;;;;;;;;;8.94;100.00;94622.69;10460880;28;2106;-65
2024/02/07 18:30:58;;;;;;;;;;;;;;;9.01;100.00;94622.31;10472996;28;2035;-65
2024/02/07 18:36:10;;;;;;;;;;;;;;;9.07;100.00;94624.63;10474265;28;2078;-64
2024/02/07 18:41:15;;;;;;;;;;;;;;;9.15;100.00;94631.19;10449540;28;2139;-63
2024/02/07 18:46:19;;;;;;;;;;;;;;;9.13;100.00;94620.78;10454627;28;2399;-64
2024/02/07 18:51:25;;;;;;;;;;;;;;;9.13;100.00;94619.97;10473828;28;2421;-64
2024/02/07 18:56:29;;;;;;;;;;;;;;;9.11;100.00;94617.59;10472140;28;2535;-68
2024/02/07 19:01:35;;;;;;;;;;;;;;;9.15;100.00;94607.88;10472738;28;2273;-64
2024/02/07 19:06:44;;;;;;;;;;;;;;;9.17;100.00;94610.28;10469242;28;2045;-67
2024/02/07 19:11:55;;;;;;;;;;;;;;;9.16;100.00;94597.94;10474146;28;2238;-64
2024/02/07 19:17:00;;;;;;;;;;;;;;;9.21;100.00;94601.31;10469407;28;2090;-64
2024/02/07 19:22:07;;;;;;;;;;;;;;;9.16;100.00;94598.75;10478085;28;2190;-66
2024/02/07 19:27:11;;;;;;;;;;;;;;;9.15;100.00;94591.78;10473378;28;2210;-69
2024/02/07 19:32:15;;;;;;;;;;;;;;;9.14;100.00;94579.47;10458911;28;2225;-68
2024/02/07 19:37:19;;;;;;;;;;;;;;;9.21;100.00;94579.88;10473547;28;2214;-73
2024/02/07 19:42:25;;;;;;;;;;;;;;;9.21;100.00;94576.41;10472800;28;2091;-73
2024/02/07 19:47:35;;;;;;;;;;;;;;;9.11;100.00;94569.34;10470294;28;2134;-67
2024/02/07 19:52:40;;;;;;;;;;;;;;;9.08;100.00;94569.91;10473202;28;2063;-72
2024/02/07 19:57:45;;;;;;;;;;;;;;;9.07;100.00;94572.88;10472691;28;2025;-71
2024/02/07 20:02:52;;;;;;;;;;;;;;;9.08;100.00;94574.47;10455232;28;2397;-66
2024/02/07 20:07:59;;;;;;;;;;;;;;;9.11;100.00;94553.25;10472930;28;2035;-65
2024/02/07 20:13:09;;;;;;;;;;;;;;;9.06;100.00;94572.09;10460031;28;2064;-65
2024/02/07 20:18:16;;;;;;;;;;;;;;;8.97;100.00;94579.22;10473394;28;2303;-64
2024/02/07 20:23:21;;;;;;;;;;;;;;;8.69;100.00;94577.50;10472594;28;2268;-65
2024/02/07 20:28:28;;;;;;;;;;;;;;;8.41;100.00;94572.00;10470698;28;2455;-65
2024/02/07 20:33:39;;;;;;;;;;;;;;;8.17;100.00;94573.91;10469916;28;2071;-64
2024/02/07 20:38:48;;;;;;;;;;;;;;;8.07;100.00;94567.56;10476703;28;2142;-70
2024/02/07 20:44:00;;;;;;;;;;;;;;;7.96;100.00;94576.84;10479528;28;2019;-66
2024/02/07 20:49:05;;;;;;;;;;;;;;;8.08;100.00;94560.38;10465893;28;2087;-65
2024/02/07 20:54:12;;;;;;;;;;;;;;;8.19;100.00;94561.00;10464265;28;2149;-65
2024/02/07 20:59:38;;;;;;;;;;;;;;;8.27;100.00;94549.66;10479093;28;2197;-66
2024/02/07 21:04:52;;;;;;;;;;;;;;;8.24;100.00;94556.41;10478105;28;2260;-70
2024/02/07 21:09:57;;;;;;;;;;;;;;;8.13;100.00;94550.38;10476965;28;2269;-69
2024/02/07 21:15:02;;;;;;;;;;;;;;;8.05;100.00;94553.69;10476120;28;1996;-68
2024/02/07 21:20:15;;;;;;;;;;;;;;;7.99;100.00;94549.47;10482119;28;2056;-67
2024/02/07 21:25:28;;;;;;;;;;;;;;;7.91;100.00;94552.00;10478094;28;2187;-65
2024/02/07 21:30:33;;;;;;;;;;;;;;;7.85;100.00;94549.38;10477355;28;2126;-67
2024/02/07 21:35:42;;;;;;;;;;;;;;;7.75;100.00;94549.50;10477380;28;2150;-66
2024/02/07 21:40:48;;;;;;;;;;;;;;;7.72;100.00;94544.72;10472338;28;2131;-68
2024/02/07 21:45:52;;;;;;;;;;;;;;;7.63;100.00;94549.09;10477356;28;2118;-65
2024/02/07 21:50:58;;;;;;;;;;;;;;;7.54;100.00;94551.59;10475906;28;2115;-64
2024/02/07 21:56:05;;;;;;;;;;;;;;;7.39;100.00;94561.69;10478348;28;1984;-66
2024/02/07 22:01:08;;;;;;;;;;;;;;;7.21;100.00;94560.50;10474090;28;2190;-64
2024/02/07 22:06:12;;;;;;;;;;;;;;;7.05;100.00;94574.00;10472561;28;2457;-65
2024/02/07 22:11:17;;;;;;;;;;;;;;;6.90;100.00;94586.69;10468644;28;1992;-65
2024/02/07 22:16:21;;;;;;;;;;;;;;;6.76;100.00;94575.84;10475067;28;2228;-65
2024/02/07 22:21:24;;;;;;;;;;;;;;;6.65;100.00;94574.31;10473120;28;2310;-66
2024/02/07 22:26:34;;;;;;;;;;;;;;;6.60;100.00;94571.69;10469345;28;2240;-64
2024/02/07 22:31:39;;;;;;;;;;;;;;;6.55;100.00;94569.03;10473202;28;2277;-65
2024/02/07 22:36:46;;;;;;;;;;;;;;;6.45;100.00;94569.91;10468552;28;2107;-65
2024/02/07 22:41:51;;;;;;;;;;;;;;;6.45;100.00;94554.69;10467624;28;2083;-66
2024/02/07 22:46:58;;;;;;;;;;;;;;;6.37;100.00;94559.81;10469444;28;2332;-66
2024/02/07 22:52:02;;;;;;;;;;;;;;;6.36;100.00;94569.72;10471663;28;2243;-67
2024/02/07 22:57:07;;;;;;;;;;;;;;;6.37;100.00;94573.97;10466792;28;2110;-67
2024/02/07 23:02:13;;;;;;;;;;;;;;;6.30;100.00;94565.47;10469371;28;2040;-65
2024/02/07 23:07:17;;;;;;;;;;;;;;;6.29;100.00;94577.19;10450743;28;2318;-66
2024/02/07 23:12:23;;;;;;;;;;;;;;;6.34;100.00;94574.50;10469223;28;2051;-65
2024/02/07 23:17:30;;;;;;;;;;;;;;;6.33;100.00;94572.91;10456941;28;2064;-65
2024/02/07 23:22:33;;;;;;;;;;;;;;;6.31;100.00;94568.94;10463719;28;2055;-66
2024/02/07 23:27:41;;;;;;;;;;;;;;;6.26;100.00;94577.75;10469546;28;2005;-66
2024/02/07 23:32:47;;;;;;;;;;;;;;;6.24;100.00;94585.25;10471255;28;2496;-64
2024/02/07 23:37:51;;;;;;;;;;;;;;;6.22;100.00;94584.72;10471972;28;2158;-65
2024/02/07 23:42:55;;;;;;;;;;;;;;;6.12;100.00;94577.56;10437169;28;2294;-66
2024/02/07 23:47:58;;;;;;;;;;;;;;;6.11;100.00;94575.97;10454661;28;2113;-65
2024/02/07 23:53:02;;;;;;;;;;;;;;;6.15;100.00;94577.00;10468999;28;2233;-64
2024/02/07 23:58:05;;;;;;;;;;;;;;;6.08;100.00;94581.06;10454603;28;2068;-64
